createdAt,value
2023-01-08T00:01:42.719Z,12.25
2023-01-08T00:04:12.168Z,12.26
2023-01-08T00:06:40.946Z,12.26
2023-01-08T00:09:11.485Z,12.24
2023-01-08T00:11:40.295Z,12.21
2023-01-08T00:14:09.298Z,12.20
2023-01-08T00:16:39.302Z,12.20
2023-01-08T00:19:08.833Z,12.17
2023-01-08T00:21:37.420Z,12.16
2023-01-08T00:24:06.792Z,12.11
2023-01-08T00:26:35.429Z,12.08
2023-01-08T00:29:04.290Z,12.07
2023-01-08T00:31:33.310Z,12.02
2023-01-08T00:34:03.574Z,12.02
2023-01-08T00:36:32.145Z,11.87
2023-01-08T00:39:01.127Z,11.87
2023-01-08T00:41:29.782Z,11.71
2023-01-08T00:43:58.592Z,11.57
2023-01-08T00:46:28.141Z,11.53
2023-01-08T00:48:57.055Z,11.54
2023-01-08T00:51:27.447Z,11.59
2023-01-08T00:53:56.380Z,11.61
2023-01-08T00:56:25.077Z,11.65
2023-01-08T00:58:53.972Z,11.64
2023-01-08T01:01:22.752Z,11.64
2023-01-08T01:03:51.939Z,11.67
2023-01-08T01:06:20.629Z,11.66
2023-01-08T01:08:51.073Z,11.65
2023-01-08T01:11:22.779Z,11.68
2023-01-08T01:13:52.496Z,11.74
2023-01-08T01:16:21.321Z,11.73
2023-01-08T01:18:52.368Z,11.75
2023-01-08T01:21:24.771Z,11.79
2023-01-08T01:23:58.133Z,11.81
2023-01-08T01:26:27.478Z,11.78
2023-01-08T01:28:58.824Z,11.77
2023-01-08T01:31:29.517Z,11.75
2023-01-08T01:33:58.910Z,11.71
2023-01-08T01:36:27.769Z,11.68
2023-01-08T01:38:59.479Z,11.66
2023-01-08T01:41:31.043Z,11.61
2023-01-08T01:44:01.584Z,11.58
2023-01-08T01:46:37.950Z,11.67
2023-01-08T01:49:11.253Z,11.52
2023-01-08T01:51:46.058Z,11.48
2023-01-08T01:54:18.925Z,11.50
2023-01-08T01:56:47.979Z,11.49
2023-01-08T01:59:17.792Z,11.46
2023-01-08T02:01:47.390Z,11.45
2023-01-08T02:04:16.328Z,11.37
2023-01-08T02:06:50.260Z,11.27
2023-01-08T02:09:24.987Z,11.24
2023-01-08T02:12:14.618Z,11.22
2023-01-08T02:14:54.998Z,11.18
2023-01-08T02:17:33.190Z,11.18
2023-01-08T02:20:09.953Z,11.02
2023-01-08T02:22:49.551Z,11.18
2023-01-08T02:25:31.873Z,11.15
2023-01-08T02:28:06.412Z,11.08
2023-01-08T02:30:35.342Z,11.11
2023-01-08T02:33:03.947Z,11.06
2023-01-08T02:35:41.973Z,11.14
2023-01-08T02:38:14.537Z,11.13
2023-01-08T02:40:54.580Z,11.21
2023-01-08T02:43:31.014Z,11.23
2023-01-08T02:46:03.122Z,11.18
2023-01-08T02:48:37.724Z,11.21
2023-01-08T02:51:11.348Z,11.15
2023-01-08T02:53:44.238Z,11.13
2023-01-08T02:56:16.905Z,11.01
2023-01-08T02:58:48.561Z,10.73
2023-01-08T03:01:19.604Z,10.51
2023-01-08T03:03:53.454Z,10.32
2023-01-08T03:06:23.265Z,10.44
2023-01-08T03:08:54.136Z,10.24
2023-01-08T03:11:25.212Z,10.09
2023-01-08T03:13:59.079Z,10.13
2023-01-08T03:16:34.850Z,10.22
2023-01-08T03:19:10.822Z,10.41
2023-01-08T03:21:42.578Z,10.48
2023-01-08T03:24:15.836Z,10.56
2023-01-08T03:26:48.243Z,10.60
2023-01-08T03:29:22.201Z,10.69
2023-01-08T03:31:52.969Z,10.76
2023-01-08T03:34:23.011Z,10.76
2023-01-08T03:36:55.094Z,10.57
2023-01-08T03:39:30.018Z,10.65
2023-01-08T03:42:02.767Z,10.62
2023-01-08T03:44:32.820Z,10.57
2023-01-08T03:47:01.716Z,10.53
2023-01-08T03:49:31.286Z,10.41
2023-01-08T03:52:00.119Z,10.26
2023-01-08T03:54:32.989Z,10.29
2023-01-08T03:57:01.908Z,9.94
2023-01-08T03:59:30.403Z,10.20
2023-01-08T04:02:00.760Z,10.21
2023-01-08T04:04:29.614Z,10.33
2023-01-08T04:06:58.538Z,10.28
2023-01-08T04:09:27.090Z,10.32
2023-01-08T04:11:56.004Z,10.23
2023-01-08T04:14:24.584Z,10.42
2023-01-08T04:16:53.392Z,10.57
2023-01-08T04:19:23.564Z,10.44
2023-01-08T04:21:52.660Z,10.70
2023-01-08T04:24:21.552Z,10.88
2023-01-08T04:26:50.436Z,10.99
2023-01-08T04:29:18.964Z,11.10
2023-01-08T04:31:47.778Z,11.15
2023-01-08T04:34:16.446Z,10.96
2023-01-08T04:36:46.693Z,10.85
2023-01-08T04:39:15.299Z,10.95
2023-01-08T04:41:44.371Z,11.00
2023-01-08T04:44:13.054Z,10.97
2023-01-08T04:46:41.997Z,11.03
2023-01-08T04:49:11.586Z,11.02
2023-01-08T04:51:41.013Z,10.98
2023-01-08T04:54:11.036Z,11.11
2023-01-08T04:56:39.948Z,11.15
2023-01-08T04:59:08.557Z,11.10
2023-01-08T05:01:37.647Z,11.12
2023-01-08T05:04:06.740Z,10.91
2023-01-08T05:06:35.634Z,10.69
2023-01-08T05:09:05.132Z,10.46
2023-01-08T05:11:37.617Z,10.34
2023-01-08T05:14:06.683Z,10.54
2023-01-08T05:16:35.577Z,10.63
2023-01-08T05:19:04.176Z,10.80
2023-01-08T05:21:33.073Z,10.95
2023-01-08T05:24:01.601Z,11.07
2023-01-08T05:26:30.397Z,11.13
2023-01-08T05:29:00.652Z,11.17
2023-01-08T05:31:29.643Z,11.24
2023-01-08T05:33:59.899Z,11.27
2023-01-08T05:36:29.094Z,11.32
2023-01-08T05:38:57.665Z,11.36
2023-01-08T05:41:26.613Z,11.42
2023-01-08T05:43:55.223Z,11.44
2023-01-08T05:46:25.603Z,11.49
2023-01-08T05:48:54.207Z,11.50
2023-01-08T05:51:23.082Z,11.48
2023-01-08T05:53:51.642Z,11.49
2023-01-08T05:56:20.603Z,11.55
2023-01-08T05:58:49.191Z,11.52
2023-01-08T06:01:18.180Z,11.56
2023-01-08T06:03:48.178Z,11.59
2023-01-08T06:06:17.150Z,11.56
2023-01-08T06:08:45.858Z,11.46
2023-01-08T06:11:15.140Z,11.52
2023-01-08T06:13:44.919Z,11.38
2023-01-08T06:16:14.270Z,11.38
2023-01-08T06:18:42.906Z,11.29
2023-01-08T06:21:13.559Z,11.38
2023-01-08T06:23:42.605Z,11.26
2023-01-08T06:26:11.758Z,11.32
2023-01-08T06:28:40.362Z,11.36
2023-01-08T06:31:09.221Z,11.32
2023-01-08T06:33:37.844Z,11.37
2023-01-08T06:36:07.351Z,11.45
2023-01-08T06:38:38.370Z,11.63
2023-01-08T06:41:08.820Z,11.78
2023-01-08T06:43:37.953Z,11.92
2023-01-08T06:46:08.810Z,11.98
2023-01-08T06:48:38.390Z,11.99
2023-01-08T06:51:07.929Z,12.10
2023-01-08T06:53:38.324Z,12.22
2023-01-08T06:56:09.539Z,12.29
2023-01-08T06:58:39.652Z,12.30
2023-01-08T07:01:08.635Z,12.00
2023-01-08T07:03:37.167Z,12.31
2023-01-08T07:06:06.655Z,12.37
2023-01-08T07:08:35.242Z,11.97
2023-01-08T07:11:05.929Z,11.58
2023-01-08T07:13:34.665Z,11.35
2023-01-08T07:16:07.325Z,11.50
2023-01-08T07:18:36.250Z,11.40
2023-01-08T07:21:06.614Z,11.41
2023-01-08T07:23:35.670Z,11.49
2023-01-08T07:26:07.644Z,11.57
2023-01-08T07:28:36.437Z,11.75
2023-01-08T07:31:06.921Z,11.89
2023-01-08T07:33:35.936Z,12.06
2023-01-08T07:36:06.041Z,12.25
2023-01-08T07:38:34.531Z,12.43
2023-01-08T07:41:04.668Z,12.60
2023-01-08T07:43:35.394Z,12.76
2023-01-08T07:46:05.330Z,12.91
2023-01-08T07:48:34.272Z,13.05
2023-01-08T07:51:04.010Z,13.10
2023-01-08T07:53:32.737Z,13.26
2023-01-08T07:56:02.324Z,13.32
2023-01-08T07:58:30.910Z,13.40
2023-01-08T08:01:01.965Z,13.55
2023-01-08T08:03:30.608Z,13.66
2023-01-08T08:06:01.223Z,13.81
2023-01-08T08:08:29.857Z,13.91
2023-01-08T08:10:58.705Z,14.02
2023-01-08T08:13:27.415Z,14.17
2023-01-08T08:15:56.284Z,14.28
2023-01-08T08:18:26.433Z,14.36
2023-01-08T08:20:55.261Z,14.36
2023-01-08T08:23:23.867Z,14.52
2023-01-08T08:25:52.980Z,14.58
2023-01-08T08:28:21.887Z,14.59
2023-01-08T08:30:52.743Z,14.56
2023-01-08T08:33:21.417Z,14.57
2023-01-08T08:35:52.124Z,14.73
2023-01-08T08:38:23.833Z,14.83
2023-01-08T08:40:52.997Z,14.84
2023-01-08T08:43:21.533Z,14.94
2023-01-08T08:45:50.445Z,15.04
2023-01-08T08:48:19.096Z,15.11
2023-01-08T08:50:48.055Z,15.25
2023-01-08T08:53:18.076Z,15.43
2023-01-08T08:55:47.241Z,15.55
2023-01-08T08:58:15.880Z,15.60
2023-01-08T09:00:45.157Z,15.71
2023-01-08T09:03:15.248Z,15.80
2023-01-08T09:05:44.544Z,15.80
2023-01-08T09:08:13.869Z,15.92
2023-01-08T09:10:44.376Z,15.97
2023-01-08T09:13:13.195Z,15.96
2023-01-08T09:15:42.125Z,15.93
2023-01-08T09:18:11.042Z,16.04
2023-01-08T09:20:40.417Z,16.05
2023-01-08T09:23:08.895Z,16.10
2023-01-08T09:25:37.807Z,16.14
2023-01-08T09:28:09.944Z,16.06
2023-01-08T09:30:39.075Z,16.07
2023-01-08T09:33:07.804Z,16.16
2023-01-08T09:35:36.701Z,16.13
2023-01-08T09:38:05.279Z,16.12
2023-01-08T09:40:40.857Z,16.29
2023-01-08T09:43:18.446Z,16.34
2023-01-08T09:45:51.843Z,16.30
2023-01-08T09:48:23.847Z,16.33
2023-01-08T09:50:52.929Z,16.44
2023-01-08T09:53:22.276Z,16.55
2023-01-08T09:56:09.299Z,16.65
2023-01-08T09:58:44.802Z,16.66
2023-01-08T10:01:17.159Z,16.70
2023-01-08T10:03:49.904Z,16.74
2023-01-08T10:06:19.350Z,16.77
2023-01-08T10:08:48.039Z,16.71
2023-01-08T10:11:17.674Z,16.73
2023-01-08T10:13:52.042Z,16.82
2023-01-08T10:16:28.969Z,16.86
2023-01-08T10:18:57.625Z,16.83
2023-01-08T10:21:31.806Z,16.84
2023-01-08T10:24:00.438Z,16.84
2023-01-08T10:26:30.977Z,16.90
2023-01-08T10:29:13.466Z,17.07
2023-01-08T10:31:48.507Z,17.16
2023-01-08T10:34:29.249Z,17.15
2023-01-08T10:36:58.309Z,17.15
2023-01-08T10:39:28.968Z,17.22
2023-01-08T10:42:05.665Z,17.29
2023-01-08T10:44:35.951Z,17.33
2023-01-08T10:47:06.557Z,17.39
2023-01-08T10:49:41.931Z,17.49
2023-01-08T10:52:26.045Z,17.61
2023-01-08T10:54:55.237Z,17.50
2023-01-08T10:57:27.591Z,17.58
2023-01-08T10:59:58.337Z,17.60
2023-01-08T11:02:38.673Z,17.82
2023-01-08T11:05:11.542Z,17.72
2023-01-08T11:07:41.535Z,17.77
2023-01-08T11:10:24.352Z,17.95
2023-01-08T11:12:58.419Z,18.02
2023-01-08T11:15:38.871Z,18.18
2023-01-08T11:18:23.842Z,18.17
2023-01-08T11:20:53.980Z,17.96
2023-01-08T11:23:25.130Z,17.92
2023-01-08T11:26:01.285Z,17.90
2023-01-08T11:28:40.658Z,17.93
2023-01-08T11:31:16.272Z,17.88
2023-01-08T11:33:48.898Z,17.84
2023-01-08T11:36:24.465Z,17.88
2023-01-08T11:38:53.446Z,17.89
2023-01-08T11:41:44.513Z,17.80
2023-01-08T11:44:30.080Z,17.95
2023-01-08T11:47:10.067Z,17.99
2023-01-08T11:49:56.168Z,17.99
2023-01-08T11:52:37.796Z,17.91
2023-01-08T11:55:17.306Z,17.89
2023-01-08T11:58:00.755Z,17.89
2023-01-08T12:00:49.922Z,17.79
2023-01-08T12:03:30.921Z,17.90
2023-01-08T12:06:12.164Z,17.81
2023-01-08T12:08:52.147Z,17.71
2023-01-08T12:11:27.091Z,17.87
2023-01-08T12:14:17.148Z,17.95
2023-01-08T12:17:01.522Z,17.84
2023-01-08T12:19:49.894Z,17.69
2023-01-08T12:22:32.400Z,17.72
2023-01-08T12:25:39.289Z,17.74
2023-01-08T12:28:34.096Z,17.78
2023-01-08T12:31:25.714Z,17.86
2023-01-08T12:33:58.112Z,17.82
2023-01-08T12:36:34.812Z,17.91
2023-01-08T12:39:09.797Z,17.97
2023-01-08T12:41:42.837Z,17.74
2023-01-08T12:44:13.499Z,17.89
2023-01-08T12:46:46.158Z,17.95
2023-01-08T12:49:23.784Z,18.08
2023-01-08T12:52:00.782Z,18.14
2023-01-08T12:54:39.022Z,18.19
2023-01-08T12:57:13.394Z,18.19
2023-01-08T12:59:49.309Z,18.06
2023-01-08T13:02:35.661Z,18.17
2023-01-08T13:05:15.947Z,18.19
2023-01-08T13:07:48.077Z,18.06
2023-01-08T13:10:26.927Z,18.01
2023-01-08T13:12:57.621Z,17.77
2023-01-08T13:15:28.576Z,17.89
2023-01-08T13:17:59.567Z,17.84
2023-01-08T13:20:31.295Z,17.86
2023-01-08T13:23:03.335Z,17.93
2023-01-08T13:25:35.535Z,17.96
2023-01-08T13:28:19.794Z,18.07
2023-01-08T13:30:50.065Z,17.98
2023-01-08T13:33:41.859Z,18.02
2023-01-08T13:36:21.030Z,18.03
2023-01-08T13:39:03.218Z,18.07
2023-01-08T13:41:34.242Z,17.89
2023-01-08T13:44:06.242Z,17.93
2023-01-08T13:46:40.897Z,17.82
2023-01-08T13:49:11.821Z,17.73
2023-01-08T13:51:43.702Z,17.85
2023-01-08T13:54:22.325Z,17.93
2023-01-08T13:56:55.936Z,17.84
2023-01-08T13:59:38.424Z,17.98
2023-01-08T14:02:24.575Z,17.93
2023-01-08T14:04:54.334Z,17.89
2023-01-08T14:07:24.811Z,17.68
2023-01-08T14:09:55.191Z,17.79
2023-01-08T14:12:25.811Z,17.82
2023-01-08T14:14:59.906Z,17.81
2023-01-08T14:17:32.503Z,17.77
2023-01-08T14:20:01.572Z,17.61
2023-01-08T14:22:34.918Z,17.62
2023-01-08T14:25:07.776Z,17.62
2023-01-08T14:27:36.726Z,17.64
2023-01-08T14:30:17.326Z,17.76
2023-01-08T14:32:46.470Z,17.60
2023-01-08T14:35:19.483Z,17.62
2023-01-08T14:37:48.395Z,17.48
2023-01-08T14:40:29.000Z,17.45
2023-01-08T14:43:04.425Z,17.47
2023-01-08T14:45:34.505Z,17.31
2023-01-08T14:48:12.168Z,17.35
2023-01-08T14:50:43.647Z,17.21
2023-01-08T14:53:21.762Z,17.30
2023-01-08T14:55:55.416Z,17.15
2023-01-08T14:58:26.915Z,17.06
2023-01-08T15:01:00.149Z,17.03
2023-01-08T15:03:35.337Z,17.02
2023-01-08T15:06:04.385Z,16.97
2023-01-08T15:08:36.906Z,16.95
2023-01-08T15:11:15.519Z,16.98
2023-01-08T15:13:44.502Z,16.89
2023-01-08T15:16:18.547Z,16.88
2023-01-08T15:18:50.416Z,16.75
2023-01-08T15:21:21.384Z,16.65
2023-01-08T15:23:54.822Z,16.46
2023-01-08T15:26:25.786Z,16.42
2023-01-08T15:28:57.822Z,16.40
2023-01-08T15:31:31.678Z,16.39
2023-01-08T15:34:01.681Z,16.10
2023-01-08T15:36:30.271Z,16.01
2023-01-08T15:38:59.085Z,15.89
2023-01-08T15:41:53.534Z,15.84
2023-01-08T15:44:22.745Z,15.62
2023-01-08T15:46:52.648Z,15.53
2023-01-08T15:49:21.739Z,15.38
2023-01-08T15:51:52.473Z,15.36
2023-01-08T15:54:24.691Z,15.25
2023-01-08T15:56:54.742Z,15.24
2023-01-08T15:59:23.772Z,15.17
2023-01-08T16:01:52.480Z,15.12
2023-01-08T16:04:21.514Z,14.97
2023-01-08T16:06:52.271Z,15.02
2023-01-08T16:09:21.191Z,14.86
2023-01-08T16:11:50.490Z,14.94
2023-01-08T16:14:20.942Z,14.87
2023-01-08T16:16:49.550Z,14.82
2023-01-08T16:19:18.376Z,14.68
2023-01-08T16:21:50.197Z,14.62
2023-01-08T16:24:19.089Z,14.67
2023-01-08T16:26:47.683Z,14.57
2023-01-08T16:29:16.964Z,14.52
2023-01-08T16:31:48.430Z,14.59
2023-01-08T16:34:17.643Z,14.56
2023-01-08T16:36:46.257Z,14.60
2023-01-08T16:39:15.207Z,14.56
2023-01-08T16:41:44.039Z,14.57
2023-01-08T16:44:20.005Z,14.59
2023-01-08T16:46:51.038Z,14.48
2023-01-08T16:49:20.013Z,14.37
2023-01-08T16:51:48.724Z,14.36
2023-01-08T16:54:18.602Z,14.29
2023-01-08T16:56:47.366Z,14.36
2023-01-08T16:59:23.223Z,14.27
2023-01-08T17:01:54.495Z,14.24
2023-01-08T17:04:23.446Z,14.19
2023-01-08T17:06:52.140Z,14.18
2023-01-08T17:09:21.043Z,14.09
2023-01-08T17:11:49.751Z,14.09
2023-01-08T17:14:18.634Z,14.04
2023-01-08T17:16:47.735Z,14.11
2023-01-08T17:19:18.281Z,14.12
2023-01-08T17:21:48.177Z,14.12
2023-01-08T17:24:17.525Z,13.96
2023-01-08T17:26:46.399Z,13.94
2023-01-08T17:29:15.387Z,13.88
2023-01-08T17:31:44.079Z,13.82
2023-01-08T17:34:14.861Z,13.73
2023-01-08T17:36:44.940Z,13.65
2023-01-08T17:39:13.919Z,13.68
2023-01-08T17:41:59.948Z,13.63
2023-01-08T17:44:31.102Z,13.62
2023-01-08T17:46:59.743Z,13.54
2023-01-08T17:49:30.680Z,13.53
2023-01-08T17:52:00.968Z,13.44
2023-01-08T17:54:30.978Z,13.39
2023-01-08T17:56:59.561Z,13.40
2023-01-08T17:59:28.870Z,13.43
2023-01-08T18:01:58.045Z,13.35
2023-01-08T18:04:27.029Z,13.26
2023-01-08T18:06:55.711Z,13.16
2023-01-08T18:09:25.769Z,13.12
2023-01-08T18:11:55.102Z,13.09
2023-01-08T18:14:24.180Z,13.00
2023-01-08T18:16:53.817Z,12.94
2023-01-08T18:19:22.821Z,13.04
2023-01-08T18:21:51.374Z,13.09
2023-01-08T18:24:20.242Z,13.03
2023-01-08T18:26:51.746Z,12.99
2023-01-08T18:29:20.680Z,13.05
2023-01-08T18:31:49.209Z,13.08
2023-01-08T18:34:18.213Z,13.11
2023-01-08T18:36:46.776Z,13.25
2023-01-08T18:39:16.022Z,13.18
2023-01-08T18:42:02.058Z,13.21
2023-01-08T18:44:32.409Z,13.30
2023-01-08T18:47:00.957Z,13.33
2023-01-08T18:49:30.102Z,13.43
2023-01-08T18:51:58.730Z,13.44
2023-01-08T18:54:27.722Z,13.31
2023-01-08T18:56:56.215Z,13.41
2023-01-08T18:59:25.547Z,13.41
2023-01-08T19:01:55.551Z,13.39
2023-01-08T19:04:24.575Z,13.45
2023-01-08T19:06:53.835Z,13.53
2023-01-08T19:09:22.832Z,13.65
2023-01-08T19:11:51.229Z,13.79
2023-01-08T19:14:20.110Z,13.89
2023-01-08T19:16:51.557Z,13.90
2023-01-08T19:19:21.874Z,13.98
2023-01-08T19:21:50.599Z,13.98
2023-01-08T19:24:19.496Z,14.04
2023-01-08T19:26:48.293Z,14.05
2023-01-08T19:29:17.161Z,14.02
2023-01-08T19:31:46.067Z,13.93
2023-01-08T19:34:14.987Z,14.01
2023-01-08T19:36:45.000Z,14.05
2023-01-08T19:39:14.070Z,14.07
2023-01-08T19:41:59.737Z,14.08
2023-01-08T19:44:28.681Z,14.11
2023-01-08T19:46:57.185Z,14.08
2023-01-08T19:49:26.067Z,14.10
2023-01-08T19:51:55.994Z,14.06
2023-01-08T19:54:25.969Z,13.98
2023-01-08T19:56:54.859Z,14.06
2023-01-08T19:59:24.800Z,14.02
2023-01-08T20:01:53.400Z,14.01
2023-01-08T20:04:22.389Z,14.00
2023-01-08T20:06:52.411Z,13.92
2023-01-08T20:09:22.675Z,13.94
2023-01-08T20:11:51.446Z,13.88
2023-01-08T20:14:21.223Z,13.88
2023-01-08T20:16:49.849Z,13.84
2023-01-08T20:19:18.660Z,13.94
2023-01-08T20:21:47.222Z,13.94
2023-01-08T20:24:16.199Z,13.90
2023-01-08T20:26:47.419Z,13.91
2023-01-08T20:29:18.173Z,13.96
2023-01-08T20:31:46.769Z,14.07
2023-01-08T20:34:17.375Z,14.03
2023-01-08T20:36:46.509Z,14.04
2023-01-08T20:39:17.434Z,13.95
2023-01-08T20:41:55.592Z,14.00
2023-01-08T20:44:32.421Z,13.96
2023-01-08T20:47:01.576Z,14.00
2023-01-08T20:49:30.518Z,14.01
2023-01-08T20:52:00.368Z,14.16
2023-01-08T20:54:30.486Z,14.14
2023-01-08T20:57:01.644Z,14.17
2023-01-08T20:59:30.892Z,14.29
2023-01-08T21:01:59.556Z,14.39
2023-01-08T21:04:28.636Z,14.51
2023-01-08T21:06:57.559Z,14.52
2023-01-08T21:09:26.588Z,14.50
2023-01-08T21:11:55.126Z,14.40
2023-01-08T21:14:25.406Z,14.36
2023-01-08T21:16:54.333Z,14.41
2023-01-08T21:19:23.553Z,14.37
2023-01-08T21:21:52.372Z,14.36
2023-01-08T21:24:21.584Z,14.48
2023-01-08T21:26:50.250Z,14.39
2023-01-08T21:29:20.984Z,14.47
2023-01-08T21:31:51.012Z,14.39
2023-01-08T21:34:20.417Z,14.50
2023-01-08T21:36:49.036Z,14.43
2023-01-08T21:39:18.022Z,14.35
2023-01-08T21:42:03.388Z,14.31
2023-01-08T21:44:49.536Z,14.27
2023-01-08T21:47:19.839Z,14.17
2023-01-08T21:49:49.649Z,14.26
2023-01-08T21:52:36.520Z,14.11
2023-01-08T21:55:05.898Z,14.17
2023-01-08T21:57:39.680Z,14.12
2023-01-08T22:00:10.057Z,14.16
2023-01-08T22:02:40.076Z,14.14
2023-01-08T22:05:09.939Z,14.00
2023-01-08T22:07:38.920Z,14.06
2023-01-08T22:10:09.422Z,13.93
2023-01-08T22:12:38.120Z,14.06
2023-01-08T22:15:08.131Z,14.03
2023-01-08T22:17:37.062Z,14.04
2023-01-08T22:20:09.819Z,14.02
2023-01-08T22:22:38.945Z,14.10
2023-01-08T22:25:09.434Z,14.21
2023-01-08T22:27:38.282Z,14.20
2023-01-08T22:30:08.639Z,14.21
2023-01-08T22:32:37.220Z,14.30
2023-01-08T22:35:07.813Z,14.28
2023-01-08T22:37:36.809Z,14.26
2023-01-08T22:40:06.484Z,14.27
2023-01-08T22:42:35.156Z,14.25
2023-01-08T22:45:04.207Z,14.25
2023-01-08T22:47:32.800Z,14.19
2023-01-08T22:50:01.660Z,14.21
2023-01-08T22:52:31.555Z,14.12
2023-01-08T22:55:00.490Z,14.15
2023-01-08T22:57:29.075Z,14.15
2023-01-08T22:59:57.944Z,14.09
2023-01-08T23:02:26.509Z,14.10
2023-01-08T23:04:55.588Z,14.12
2023-01-08T23:07:24.055Z,14.06
2023-01-08T23:09:54.506Z,14.11
2023-01-08T23:12:23.280Z,14.09
2023-01-08T23:14:52.253Z,14.04
2023-01-08T23:17:20.772Z,14.04
2023-01-08T23:19:49.666Z,14.07
2023-01-08T23:22:18.792Z,14.12
2023-01-08T23:24:47.624Z,14.13
2023-01-08T23:27:17.522Z,14.07
2023-01-08T23:29:46.543Z,14.18
2023-01-08T23:32:15.048Z,14.17
2023-01-08T23:34:43.934Z,14.24
2023-01-08T23:37:12.456Z,14.24
2023-01-08T23:39:41.641Z,14.28
2023-01-08T23:42:11.282Z,14.32
2023-01-08T23:44:41.724Z,14.25
2023-01-08T23:47:10.331Z,14.29
2023-01-08T23:49:39.132Z,14.27
2023-01-08T23:52:07.685Z,14.27
2023-01-08T23:54:36.927Z,14.18
2023-01-08T23:57:07.009Z,14.07
2023-01-08T23:59:35.874Z,14.10
